Terminal Aerodrome Forecast
Issued by NWS

Home | Current Version | Previous Version | Text Only | Print | Product List | Glossary On
Versions: 1 2 3 4 5 6 7 8 9 10 11 12 13 14 15 16 17
000
FTUS46 KMTR 161138
TAFSTS
TAF
KSTS 161138Z 1612/1712 34010G20KT P6SM SKC
     FM161600 34016G24KT P6SM SKC
     FM161800 34021G28KT P6SM SKC
     FM162100 34015G23KT P6SM SKC=

USA.gov is the U.S. government's official web portal to all federal, state and local government web resources and services.